sensor_id;sensor_type;location;lat;lon;timestamp;pressure;altitude;pressure_sealevel;temperature;humidity
66430;BME280;53242;51.694;10.006;2022-12-18T00:00:29;100988.59;;;-6.97;73.96
66430;BME280;53242;51.694;10.006;2022-12-18T00:02:51;100986.88;;;-6.97;72.95
66430;BME280;53242;51.694;10.006;2022-12-18T00:05:14;100984.56;;;-7.06;73.94
66430;BME280;53242;51.694;10.006;2022-12-18T00:07:36;100985.47;;;-7.07;74.53
66430;BME280;53242;51.694;10.006;2022-12-18T00:09:59;100987.56;;;-7.20;75.09
66430;BME280;53242;51.694;10.006;2022-12-18T00:12:21;100984.94;;;-7.18;75.05
66430;BME280;53242;51.694;10.006;2022-12-18T00:14:44;100990.84;;;-7.16;75.66
66430;BME280;53242;51.694;10.006;2022-12-18T00:17:06;100990.50;;;-7.04;75.72
66430;BME280;53242;51.694;10.006;2022-12-18T00:19:28;100985.69;;;-7.15;76.02
66430;BME280;53242;51.694;10.006;2022-12-18T00:21:51;100991.75;;;-7.17;75.42
66430;BME280;53242;51.694;10.006;2022-12-18T00:24:13;100994.88;;;-7.07;75.26
66430;BME280;53242;51.694;10.006;2022-12-18T00:26:37;100998.31;;;-7.07;76.00
66430;BME280;53242;51.694;10.006;2022-12-18T00:29:07;100998.16;;;-7.02;75.51
66430;BME280;53242;51.694;10.006;2022-12-18T00:31:29;101004.94;;;-7.00;75.65
66430;BME280;53242;51.694;10.006;2022-12-18T00:33:54;101017.69;;;-6.97;74.53
66430;BME280;53242;51.694;10.006;2022-12-18T00:36:20;101024.09;;;-7.12;75.20
66430;BME280;53242;51.694;10.006;2022-12-18T00:38:43;101024.41;;;-6.92;74.66
66430;BME280;53242;51.694;10.006;2022-12-18T00:41:07;101022.06;;;-7.00;74.89
66430;BME280;53242;51.694;10.006;2022-12-18T00:43:31;101011.91;;;-7.05;75.01
66430;BME280;53242;51.694;10.006;2022-12-18T00:45:56;101012.56;;;-6.97;75.51
66430;BME280;53242;51.694;10.006;2022-12-18T00:48:19;101010.69;;;-6.91;76.05
66430;BME280;53242;51.694;10.006;2022-12-18T00:50:41;101008.84;;;-6.86;75.42
66430;BME280;53242;51.694;10.006;2022-12-18T00:53:04;101005.19;;;-6.79;74.66
66430;BME280;53242;51.694;10.006;2022-12-18T00:55:26;101019.00;;;-6.83;74.98
66430;BME280;53242;51.694;10.006;2022-12-18T00:57:51;101010.75;;;-6.95;76.63
66430;BME280;53242;51.694;10.006;2022-12-18T01:00:14;101011.47;;;-6.89;77.40
66430;BME280;53242;51.694;10.006;2022-12-18T01:02:37;101015.41;;;-6.78;76.81
66430;BME280;53242;51.694;10.006;2022-12-18T01:05:00;101009.38;;;-6.77;75.91
66430;BME280;53242;51.694;10.006;2022-12-18T01:07:23;101017.03;;;-6.75;76.07
66430;BME280;53242;51.694;10.006;2022-12-18T01:09:45;101012.06;;;-6.80;74.73
66430;BME280;53242;51.694;10.006;2022-12-18T01:12:08;101012.09;;;-6.81;74.52
66430;BME280;53242;51.694;10.006;2022-12-18T01:14:30;101008.84;;;-6.86;76.15
66430;BME280;53242;51.694;10.006;2022-12-18T01:16:52;101011.72;;;-6.69;75.06
66430;BME280;53242;51.694;10.006;2022-12-18T01:19:15;101014.66;;;-6.81;75.44
66430;BME280;53242;51.694;10.006;2022-12-18T01:21:37;101011.41;;;-6.88;74.30
66430;BME280;53242;51.694;10.006;2022-12-18T01:24:00;101023.38;;;-6.87;74.14
66430;BME280;53242;51.694;10.006;2022-12-18T01:26:24;101034.44;;;-6.85;73.47
66430;BME280;53242;51.694;10.006;2022-12-18T01:28:47;101030.69;;;-7.03;73.96
66430;BME280;53242;51.694;10.006;2022-12-18T01:31:31;101039.38;;;-7.08;75.05
66430;BME280;53242;51.694;10.006;2022-12-18T01:33:54;101031.50;;;-7.02;74.29
66430;BME280;53242;51.694;10.006;2022-12-18T01:36:43;101028.03;;;-7.00;73.82
66430;BME280;53242;51.694;10.006;2022-12-18T01:39:14;101031.69;;;-7.08;74.22
66430;BME280;53242;51.694;10.006;2022-12-18T01:41:38;101035.94;;;-7.07;73.93
66430;BME280;53242;51.694;10.006;2022-12-18T01:44:58;101046.41;;;-7.15;75.15
66430;BME280;53242;51.694;10.006;2022-12-18T01:47:32;101057.78;;;-7.24;75.36
66430;BME280;53242;51.694;10.006;2022-12-18T01:49:57;101051.97;;;-7.31;75.29
66430;BME280;53242;51.694;10.006;2022-12-18T01:52:21;101042.38;;;-7.24;75.07
66430;BME280;53242;51.694;10.006;2022-12-18T01:54:44;101034.97;;;-7.03;73.89
66430;BME280;53242;51.694;10.006;2022-12-18T01:57:07;101029.97;;;-7.08;73.90
66430;BME280;53242;51.694;10.006;2022-12-18T01:59:31;101028.38;;;-7.12;74.66
66430;BME280;53242;51.694;10.006;2022-12-18T02:01:54;101021.47;;;-7.10;75.74
66430;BME280;53242;51.694;10.006;2022-12-18T02:06:42;101026.25;;;-6.98;74.81
66430;BME280;53242;51.694;10.006;2022-12-18T02:09:14;101040.25;;;-7.08;73.87
66430;BME280;53242;51.694;10.006;2022-12-18T02:11:59;101045.38;;;-7.08;74.69
66430;BME280;53242;51.694;10.006;2022-12-18T02:24:53;101036.31;;;-7.21;74.14
66430;BME280;53242;51.694;10.006;2022-12-18T02:27:16;101029.66;;;-7.27;73.80
66430;BME280;53242;51.694;10.006;2022-12-18T02:29:48;101025.28;;;-7.23;74.42
66430;BME280;53242;51.694;10.006;2022-12-18T02:32:21;101022.88;;;-7.30;74.74
66430;BME280;53242;51.694;10.006;2022-12-18T02:34:48;101025.44;;;-7.30;75.44
66430;BME280;53242;51.694;10.006;2022-12-18T02:37:15;101028.09;;;-7.33;75.17
66430;BME280;53242;51.694;10.006;2022-12-18T02:39:42;101031.00;;;-7.45;74.81
66430;BME280;53242;51.694;10.006;2022-12-18T02:42:07;101041.25;;;-7.45;74.91
66430;BME280;53242;51.694;10.006;2022-12-18T02:44:30;101048.09;;;-7.46;74.89
66430;BME280;53242;51.694;10.006;2022-12-18T02:46:54;101054.06;;;-7.45;74.96
66430;BME280;53242;51.694;10.006;2022-12-18T02:49:41;101055.97;;;-7.52;75.10
66430;BME280;53242;51.694;10.006;2022-12-18T02:52:49;101050.88;;;-7.55;75.05
66430;BME280;53242;51.694;10.006;2022-12-18T02:58:35;101037.81;;;-7.44;74.65
66430;BME280;53242;51.694;10.006;2022-12-18T03:01:21;101031.16;;;-7.51;75.02
66430;BME280;53242;51.694;10.006;2022-12-18T03:03:52;101038.94;;;-7.54;75.19
66430;BME280;53242;51.694;10.006;2022-12-18T03:06:25;101037.84;;;-7.46;75.91
66430;BME280;53242;51.694;10.006;2022-12-18T03:08:54;101042.72;;;-7.36;74.86
66430;BME280;53242;51.694;10.006;2022-12-18T03:11:20;101042.72;;;-7.36;73.96
66430;BME280;53242;51.694;10.006;2022-12-18T03:14:03;101041.09;;;-7.39;74.81
66430;BME280;53242;51.694;10.006;2022-12-18T03:16:31;101035.56;;;-7.56;75.66
66430;BME280;53242;51.694;10.006;2022-12-18T03:18:54;101037.75;;;-7.43;75.50
66430;BME280;53242;51.694;10.006;2022-12-18T03:21:28;101044.69;;;-7.46;76.10
66430;BME280;53242;51.694;10.006;2022-12-18T03:23:52;101037.00;;;-7.46;75.32
66430;BME280;53242;51.694;10.006;2022-12-18T03:26:22;101026.16;;;-7.57;75.26
66430;BME280;53242;51.694;10.006;2022-12-18T03:28:56;101028.09;;;-7.33;74.85
66430;BME280;53242;51.694;10.006;2022-12-18T03:31:23;101025.97;;;-7.50;74.41
66430;BME280;53242;51.694;10.006;2022-12-18T03:33:52;101024.41;;;-7.55;74.88
66430;BME280;53242;51.694;10.006;2022-12-18T03:36:15;101023.84;;;-7.67;74.95
66430;BME280;53242;51.694;10.006;2022-12-18T03:38:37;101026.22;;;-7.59;75.07
66430;BME280;53242;51.694;10.006;2022-12-18T03:48:48;101022.66;;;-7.22;76.06
66430;BME280;53242;51.694;10.006;2022-12-18T03:51:40;101022.47;;;-7.47;74.80
66430;BME280;53242;51.694;10.006;2022-12-18T03:54:03;101014.00;;;-7.49;73.93
66430;BME280;53242;51.694;10.006;2022-12-18T03:56:36;101009.50;;;-7.41;73.62
66430;BME280;53242;51.694;10.006;2022-12-18T03:59:02;101018.47;;;-7.57;74.09
66430;BME280;53242;51.694;10.006;2022-12-18T04:01:38;101023.28;;;-7.45;73.73
66430;BME280;53242;51.694;10.006;2022-12-18T04:04:03;101019.97;;;-7.49;73.79
66430;BME280;53242;51.694;10.006;2022-12-18T04:06:30;101018.69;;;-7.65;73.48
66430;BME280;53242;51.694;10.006;2022-12-18T04:08:53;101024.78;;;-7.69;73.87
66430;BME280;53242;51.694;10.006;2022-12-18T04:11:18;101021.28;;;-7.67;73.34
66430;BME280;53242;51.694;10.006;2022-12-18T04:13:43;101023.06;;;-7.69;72.41
66430;BME280;53242;51.694;10.006;2022-12-18T04:16:12;101021.00;;;-7.89;72.93
66430;BME280;53242;51.694;10.006;2022-12-18T04:18:38;101018.63;;;-7.97;73.54
66430;BME280;53242;51.694;10.006;2022-12-18T04:21:00;101011.66;;;-7.91;73.83
66430;BME280;53242;51.694;10.006;2022-12-18T04:23:23;101022.75;;;-7.89;74.23
66430;BME280;53242;51.694;10.006;2022-12-18T04:25:49;101020.47;;;-8.02;74.47
66430;BME280;53242;51.694;10.006;2022-12-18T04:28:19;101018.34;;;-7.84;73.66
66430;BME280;53242;51.694;10.006;2022-12-18T04:30:41;101016.38;;;-8.09;74.15
66430;BME280;53242;51.694;10.006;2022-12-18T04:33:11;101027.47;;;-8.10;75.04
66430;BME280;53242;51.694;10.006;2022-12-18T04:35:34;101030.03;;;-7.74;75.46
66430;BME280;53242;51.694;10.006;2022-12-18T04:37:56;101038.13;;;-7.89;74.25
66430;BME280;53242;51.694;10.006;2022-12-18T04:40:19;101033.38;;;-7.72;74.17
66430;BME280;53242;51.694;10.006;2022-12-18T04:42:43;101031.91;;;-7.81;74.19
66430;BME280;53242;51.694;10.006;2022-12-18T04:45:06;101042.91;;;-7.77;74.04
66430;BME280;53242;51.694;10.006;2022-12-18T04:47:29;101040.34;;;-7.77;73.67
66430;BME280;53242;51.694;10.006;2022-12-18T04:49:51;101033.00;;;-7.91;73.79
66430;BME280;53242;51.694;10.006;2022-12-18T04:52:14;101029.66;;;-7.93;73.83
66430;BME280;53242;51.694;10.006;2022-12-18T04:54:36;101026.19;;;-7.90;73.66
66430;BME280;53242;51.694;10.006;2022-12-18T04:56:59;101017.63;;;-7.91;73.35
66430;BME280;53242;51.694;10.006;2022-12-18T04:59:22;101023.00;;;-8.36;75.62
66430;BME280;53242;51.694;10.006;2022-12-18T05:01:45;101029.03;;;-8.03;76.05
66430;BME280;53242;51.694;10.006;2022-12-18T05:04:08;101043.94;;;-8.20;76.01
66430;BME280;53242;51.694;10.006;2022-12-18T05:06:30;101049.25;;;-8.27;75.96
66430;BME280;53242;51.694;10.006;2022-12-18T05:08:52;101059.31;;;-8.19;75.41
66430;BME280;53242;51.694;10.006;2022-12-18T05:11:15;101054.69;;;-8.04;75.03
66430;BME280;53242;51.694;10.006;2022-12-18T05:13:37;101054.00;;;-8.13;75.08
66430;BME280;53242;51.694;10.006;2022-12-18T05:16:00;101057.41;;;-8.11;75.17
66430;BME280;53242;51.694;10.006;2022-12-18T05:18:24;101051.22;;;-8.02;74.71
66430;BME280;53242;51.694;10.006;2022-12-18T05:20:46;101039.56;;;-8.15;74.52
66430;BME280;53242;51.694;10.006;2022-12-18T05:23:09;101033.75;;;-8.22;74.87
66430;BME280;53242;51.694;10.006;2022-12-18T05:25:32;101031.69;;;-8.07;74.73
66430;BME280;53242;51.694;10.006;2022-12-18T05:27:54;101032.91;;;-8.22;74.30
66430;BME280;53242;51.694;10.006;2022-12-18T05:30:17;101035.34;;;-8.18;74.64
66430;BME280;53242;51.694;10.006;2022-12-18T05:32:40;101040.00;;;-7.98;74.32
66430;BME280;53242;51.694;10.006;2022-12-18T05:35:03;101033.00;;;-7.89;74.39
66430;BME280;53242;51.694;10.006;2022-12-18T05:37:25;101036.13;;;-8.14;74.55
66430;BME280;53242;51.694;10.006;2022-12-18T05:39:48;101038.41;;;-8.02;74.87
66430;BME280;53242;51.694;10.006;2022-12-18T05:42:10;101040.84;;;-7.97;73.74
66430;BME280;53242;51.694;10.006;2022-12-18T05:44:32;101034.94;;;-7.99;73.71
66430;BME280;53242;51.694;10.006;2022-12-18T05:46:55;101035.13;;;-8.07;73.79
66430;BME280;53242;51.694;10.006;2022-12-18T05:49:17;101034.44;;;-8.14;74.16
66430;BME280;53242;51.694;10.006;2022-12-18T05:51:39;101044.22;;;-7.95;73.79
66430;BME280;53242;51.694;10.006;2022-12-18T05:54:02;101050.59;;;-8.12;73.13
66430;BME280;53242;51.694;10.006;2022-12-18T05:56:24;101057.22;;;-8.03;74.27
66430;BME280;53242;51.694;10.006;2022-12-18T05:58:50;101057.34;;;-8.09;73.53
66430;BME280;53242;51.694;10.006;2022-12-18T06:01:18;101056.97;;;-8.30;73.96
66430;BME280;53242;51.694;10.006;2022-12-18T06:03:41;101058.94;;;-8.39;74.13
66430;BME280;53242;51.694;10.006;2022-12-18T06:06:03;101053.81;;;-8.41;74.34
66430;BME280;53242;51.694;10.006;2022-12-18T06:08:26;101053.44;;;-8.24;74.68
66430;BME280;53242;51.694;10.006;2022-12-18T06:10:51;101047.69;;;-7.98;75.34
66430;BME280;53242;51.694;10.006;2022-12-18T06:13:17;101048.06;;;-8.13;74.60
66430;BME280;53242;51.694;10.006;2022-12-18T06:15:39;101058.31;;;-8.13;75.17
66430;BME280;53242;51.694;10.006;2022-12-18T06:18:02;101063.84;;;-7.94;75.17
66430;BME280;53242;51.694;10.006;2022-12-18T06:20:24;101061.19;;;-7.91;74.69
66430;BME280;53242;51.694;10.006;2022-12-18T06:22:46;101069.78;;;-7.92;74.44
66430;BME280;53242;51.694;10.006;2022-12-18T06:25:09;101067.22;;;-7.94;74.28
66430;BME280;53242;51.694;10.006;2022-12-18T06:27:32;101067.09;;;-7.87;73.94
66430;BME280;53242;51.694;10.006;2022-12-18T06:29:55;101072.94;;;-7.82;74.15
66430;BME280;53242;51.694;10.006;2022-12-18T06:32:18;101072.16;;;-7.84;75.11
66430;BME280;53242;51.694;10.006;2022-12-18T06:34:40;101077.44;;;-7.90;73.97
66430;BME280;53242;51.694;10.006;2022-12-18T06:37:03;101063.94;;;-7.99;73.64
66430;BME280;53242;51.694;10.006;2022-12-18T06:39:28;101059.31;;;-7.83;74.05
66430;BME280;53242;51.694;10.006;2022-12-18T06:41:51;101052.13;;;-8.04;73.32
66430;BME280;53242;51.694;10.006;2022-12-18T06:44:13;101054.09;;;-8.16;73.99
66430;BME280;53242;51.694;10.006;2022-12-18T06:46:36;101049.81;;;-8.15;75.07
66430;BME280;53242;51.694;10.006;2022-12-18T06:49:00;101056.63;;;-8.14;74.27
66430;BME280;53242;51.694;10.006;2022-12-18T06:51:23;101058.75;;;-8.32;75.44
66430;BME280;53242;51.694;10.006;2022-12-18T06:53:46;101063.41;;;-8.12;75.15
66430;BME280;53242;51.694;10.006;2022-12-18T06:56:08;101067.41;;;-8.01;73.50
66430;BME280;53242;51.694;10.006;2022-12-18T06:58:31;101077.44;;;-7.90;73.68
66430;BME280;53242;51.694;10.006;2022-12-18T07:00:53;101072.00;;;-8.14;73.83
66430;BME280;53242;51.694;10.006;2022-12-18T07:03:16;101068.66;;;-8.16;74.26
66430;BME280;53242;51.694;10.006;2022-12-18T07:05:41;101067.78;;;-8.17;74.32
66430;BME280;53242;51.694;10.006;2022-12-18T07:08:03;101071.13;;;-8.13;74.11
66430;BME280;53242;51.694;10.006;2022-12-18T07:10:26;101069.56;;;-8.19;74.48
66430;BME280;53242;51.694;10.006;2022-12-18T07:12:48;101068.41;;;-8.07;73.58
66430;BME280;53242;51.694;10.006;2022-12-18T07:15:10;101069.50;;;-8.17;74.20
66430;BME280;53242;51.694;10.006;2022-12-18T07:17:33;101076.56;;;-8.27;74.18
66430;BME280;53242;51.694;10.006;2022-12-18T07:19:55;101083.19;;;-8.18;73.33
66430;BME280;53242;51.694;10.006;2022-12-18T07:22:18;101093.34;;;-8.14;73.58
66430;BME280;53242;51.694;10.006;2022-12-18T07:24:40;101106.47;;;-8.28;73.85
66430;BME280;53242;51.694;10.006;2022-12-18T07:27:02;101106.31;;;-8.21;73.75
66430;BME280;53242;51.694;10.006;2022-12-18T07:29:25;101106.91;;;-8.10;73.07
66430;BME280;53242;51.694;10.006;2022-12-18T07:31:47;101110.28;;;-8.08;73.08
66430;BME280;53242;51.694;10.006;2022-12-18T07:34:11;101116.25;;;-8.07;73.42
66430;BME280;53242;51.694;10.006;2022-12-18T07:36:34;101111.84;;;-8.01;74.50
66430;BME280;53242;51.694;10.006;2022-12-18T07:38:57;101123.00;;;-8.03;74.92
66430;BME280;53242;51.694;10.006;2022-12-18T07:41:20;101124.28;;;-7.85;73.86
66430;BME280;53242;51.694;10.006;2022-12-18T07:43:42;101121.09;;;-7.95;74.29
66430;BME280;53242;51.694;10.006;2022-12-18T07:46:06;101131.75;;;-7.76;74.69
66430;BME280;53242;51.694;10.006;2022-12-18T07:48:29;101134.13;;;-7.68;73.56
66430;BME280;53242;51.694;10.006;2022-12-18T07:50:52;101146.13;;;-7.69;74.45
66430;BME280;53242;51.694;10.006;2022-12-18T07:53:15;101143.38;;;-7.61;74.73
66430;BME280;53242;51.694;10.006;2022-12-18T07:55:37;101134.22;;;-7.73;74.72
66430;BME280;53242;51.694;10.006;2022-12-18T07:58:03;101128.19;;;-7.70;74.44
66430;BME280;53242;51.694;10.006;2022-12-18T08:00:26;101116.19;;;-7.68;75.36
66430;BME280;53242;51.694;10.006;2022-12-18T08:02:48;101115.19;;;-7.63;75.98
66430;BME280;53242;51.694;10.006;2022-12-18T08:05:11;101109.84;;;-7.20;79.07
66430;BME280;53242;51.694;10.006;2022-12-18T08:07:33;101111.56;;;-6.89;79.53
66430;BME280;53242;51.694;10.006;2022-12-18T08:09:56;101113.16;;;-6.84;78.34
66430;BME280;53242;51.694;10.006;2022-12-18T08:12:18;101103.38;;;-6.71;78.18
66430;BME280;53242;51.694;10.006;2022-12-18T08:14:40;101100.53;;;-6.62;78.42
66430;BME280;53242;51.694;10.006;2022-12-18T08:17:03;101098.22;;;-6.41;79.08
66430;BME280;53242;51.694;10.006;2022-12-18T08:19:25;101086.78;;;-6.31;78.99
66430;BME280;53242;51.694;10.006;2022-12-18T08:21:48;101089.19;;;-6.26;78.49
66430;BME280;53242;51.694;10.006;2022-12-18T08:24:10;101084.91;;;-6.25;78.97
66430;BME280;53242;51.694;10.006;2022-12-18T08:26:33;101088.69;;;-6.09;79.14
66430;BME280;53242;51.694;10.006;2022-12-18T08:28:56;101083.50;;;-6.07;79.05
66430;BME280;53242;51.694;10.006;2022-12-18T08:31:19;101078.41;;;-6.09;77.56
66430;BME280;53242;51.694;10.006;2022-12-18T08:33:41;101076.19;;;-5.95;78.20
66430;BME280;53242;51.694;10.006;2022-12-18T08:36:05;101065.88;;;-5.93;78.62
66430;BME280;53242;51.694;10.006;2022-12-18T08:38:27;101067.56;;;-5.92;78.23
66430;BME280;53242;51.694;10.006;2022-12-18T08:40:58;101076.94;;;-5.91;78.77
66430;BME280;53242;51.694;10.006;2022-12-18T08:43:21;101069.69;;;-5.78;78.17
66430;BME280;53242;51.694;10.006;2022-12-18T08:46:02;101066.19;;;-5.77;78.20
66430;BME280;53242;51.694;10.006;2022-12-18T08:48:24;101064.28;;;-5.70;77.52
66430;BME280;53242;51.694;10.006;2022-12-18T08:50:56;101065.41;;;-5.54;77.51
66430;BME280;53242;51.694;10.006;2022-12-18T08:53:19;101076.31;;;-5.46;77.51
66430;BME280;53242;51.694;10.006;2022-12-18T08:55:41;101067.63;;;-5.95;76.73
66430;BME280;53242;51.694;10.006;2022-12-18T08:58:04;101057.19;;;-6.44;76.48
66430;BME280;53242;51.694;10.006;2022-12-18T09:00:26;101051.34;;;-6.49;75.40
66430;BME280;53242;51.694;10.006;2022-12-18T09:02:49;101054.09;;;-6.54;75.87
66430;BME280;53242;51.694;10.006;2022-12-18T09:05:11;101043.16;;;-6.32;74.86
66430;BME280;53242;51.694;10.006;2022-12-18T09:07:34;101048.31;;;-6.34;74.92
66430;BME280;53242;51.694;10.006;2022-12-18T09:09:56;101045.50;;;-6.26;75.04
66430;BME280;53242;51.694;10.006;2022-12-18T09:12:18;101042.94;;;-6.26;75.33
66430;BME280;53242;51.694;10.006;2022-12-18T09:14:41;101041.28;;;-6.27;76.25
66430;BME280;53242;51.694;10.006;2022-12-18T09:17:04;101045.72;;;-6.32;76.08
66430;BME280;53242;51.694;10.006;2022-12-18T09:19:26;101046.84;;;-6.69;76.21
66430;BME280;53242;51.694;10.006;2022-12-18T09:21:49;101050.13;;;-6.36;74.97
66430;BME280;53242;51.694;10.006;2022-12-18T09:24:15;101053.38;;;-6.59;75.86
66430;BME280;53242;51.694;10.006;2022-12-18T09:26:38;101048.47;;;-6.38;74.52
66430;BME280;53242;51.694;10.006;2022-12-18T09:29:00;101055.09;;;-6.31;73.64
66430;BME280;53242;51.694;10.006;2022-12-18T09:31:24;101054.22;;;-6.58;74.88
66430;BME280;53242;51.694;10.006;2022-12-18T09:33:46;101055.25;;;-6.36;74.32
66430;BME280;53242;51.694;10.006;2022-12-18T09:36:09;101062.28;;;-6.14;73.72
66430;BME280;53242;51.694;10.006;2022-12-18T09:38:34;101052.00;;;-6.14;73.81
66430;BME280;53242;51.694;10.006;2022-12-18T09:41:04;101048.69;;;-6.18;74.27
66430;BME280;53242;51.694;10.006;2022-12-18T09:43:35;101050.84;;;-6.05;74.19
66430;BME280;53242;51.694;10.006;2022-12-18T09:46:01;101049.72;;;-6.23;75.03
66430;BME280;53242;51.694;10.006;2022-12-18T09:48:29;101040.72;;;-5.85;74.16
66430;BME280;53242;51.694;10.006;2022-12-18T09:50:57;101034.25;;;-5.70;74.22
66430;BME280;53242;51.694;10.006;2022-12-18T09:53:24;101045.75;;;-5.55;74.98
66430;BME280;53242;51.694;10.006;2022-12-18T09:55:48;101056.75;;;-5.51;74.16
66430;BME280;53242;51.694;10.006;2022-12-18T09:58:16;101056.19;;;-5.34;74.25
66430;BME280;53242;51.694;10.006;2022-12-18T10:00:41;101059.44;;;-5.29;74.41
66430;BME280;53242;51.694;10.006;2022-12-18T10:03:10;101046.78;;;-5.10;74.16
66430;BME280;53242;51.694;10.006;2022-12-18T10:08:02;101061.31;;;-4.85;74.79
66430;BME280;53242;51.694;10.006;2022-12-18T10:10:49;101057.59;;;-4.78;74.56
66430;BME280;53242;51.694;10.006;2022-12-18T10:13:23;101056.34;;;-4.68;74.43
66430;BME280;53242;51.694;10.006;2022-12-18T10:16:12;101055.75;;;-4.51;73.18
66430;BME280;53242;51.694;10.006;2022-12-18T10:18:59;101055.00;;;-4.32;73.64
66430;BME280;53242;51.694;10.006;2022-12-18T10:21:50;101044.63;;;-4.31;74.45
66430;BME280;53242;51.694;10.006;2022-12-18T10:26:47;101043.88;;;-3.90;73.82
66430;BME280;53242;51.694;10.006;2022-12-18T10:29:15;101039.56;;;-3.69;73.35
66430;BME280;53242;51.694;10.006;2022-12-18T10:31:37;101041.72;;;-3.58;73.61
66430;BME280;53242;51.694;10.006;2022-12-18T10:34:00;101045.25;;;-3.60;73.36
66430;BME280;53242;51.694;10.006;2022-12-18T10:36:23;101031.31;;;-3.56;73.29
66430;BME280;53242;51.694;10.006;2022-12-18T10:38:46;101025.69;;;-3.45;72.71
66430;BME280;53242;51.694;10.006;2022-12-18T10:43:40;101039.31;;;-3.42;72.72
66430;BME280;53242;51.694;10.006;2022-12-18T10:48:34;101040.31;;;-3.25;72.23
66430;BME280;53242;51.694;10.006;2022-12-18T10:50:56;101025.47;;;-3.20;72.18
66430;BME280;53242;51.694;10.006;2022-12-18T10:53:24;101026.72;;;-3.10;71.31
66430;BME280;53242;51.694;10.006;2022-12-18T10:55:47;101035.19;;;-3.06;71.22
66430;BME280;53242;51.694;10.006;2022-12-18T10:58:24;101031.41;;;-2.99;70.58
66430;BME280;53242;51.694;10.006;2022-12-18T11:01:02;101031.97;;;-2.92;70.81
66430;BME280;53242;51.694;10.006;2022-12-18T11:03:31;101022.94;;;-2.84;70.63
66430;BME280;53242;51.694;10.006;2022-12-18T11:08:33;101011.44;;;-2.76;69.97
66430;BME280;53242;51.694;10.006;2022-12-18T11:10:56;101001.81;;;-2.73;69.77
66430;BME280;53242;51.694;10.006;2022-12-18T11:13:21;100989.97;;;-2.59;70.10
66430;BME280;53242;51.694;10.006;2022-12-18T11:15:44;100995.38;;;-2.64;70.01
66430;BME280;53242;51.694;10.006;2022-12-18T11:18:36;100990.50;;;-2.53;69.82
66430;BME280;53242;51.694;10.006;2022-12-18T11:21:06;100983.59;;;-2.52;69.68
66430;BME280;53242;51.694;10.006;2022-12-18T11:23:29;100990.50;;;-2.89;70.28
66430;BME280;53242;51.694;10.006;2022-12-18T11:25:57;100987.38;;;-2.59;70.64
66430;BME280;53242;51.694;10.006;2022-12-18T11:28:34;100982.38;;;-2.62;70.31
66430;BME280;53242;51.694;10.006;2022-12-18T11:31:17;100987.56;;;-2.45;70.46
66430;BME280;53242;51.694;10.006;2022-12-18T11:33:43;100984.56;;;-2.18;69.80
66430;BME280;53242;51.694;10.006;2022-12-18T11:36:09;100984.56;;;-2.18;69.46
66430;BME280;53242;51.694;10.006;2022-12-18T11:38:37;100975.06;;;-2.18;69.46
66430;BME280;53242;51.694;10.006;2022-12-18T11:43:34;100959.31;;;-1.95;69.38
66430;BME280;53242;51.694;10.006;2022-12-18T11:46:10;100953.44;;;-1.99;68.94
66430;BME280;53242;51.694;10.006;2022-12-18T11:48:45;100955.41;;;-2.22;69.44
66430;BME280;53242;51.694;10.006;2022-12-18T11:51:14;100943.41;;;-2.23;69.37
66430;BME280;53242;51.694;10.006;2022-12-18T11:53:40;100956.19;;;-2.20;68.96
66430;BME280;53242;51.694;10.006;2022-12-18T11:58:51;100950.38;;;-2.42;69.49
66430;BME280;53242;51.694;10.006;2022-12-18T12:10:04;100915.56;;;-2.89;70.51
66430;BME280;53242;51.694;10.006;2022-12-18T12:15:25;100918.53;;;-2.97;70.94
66430;BME280;53242;51.694;10.006;2022-12-18T12:20:53;100892.94;;;-2.84;70.84
66430;BME280;53242;51.694;10.006;2022-12-18T12:23:22;100894.00;;;-2.88;71.14
66430;BME280;53242;51.694;10.006;2022-12-18T12:25:49;100884.78;;;-2.94;71.85
66430;BME280;53242;51.694;10.006;2022-12-18T12:28:48;100893.31;;;-2.92;72.14
66430;BME280;53242;51.694;10.006;2022-12-18T12:31:39;100879.78;;;-3.16;73.23
66430;BME280;53242;51.694;10.006;2022-12-18T12:39:06;100870.88;;;-3.28;73.21
66430;BME280;53242;51.694;10.006;2022-12-18T12:41:32;100871.88;;;-3.31;73.14
66430;BME280;53242;51.694;10.006;2022-12-18T12:44:32;100870.72;;;-3.25;72.96
66430;BME280;53242;51.694;10.006;2022-12-18T12:47:00;100858.19;;;-3.33;72.69
66430;BME280;53242;51.694;10.006;2022-12-18T12:49:27;100852.88;;;-3.29;72.79
66430;BME280;53242;51.694;10.006;2022-12-18T12:52:05;100842.59;;;-3.31;72.91
66430;BME280;53242;51.694;10.006;2022-12-18T12:54:28;100846.16;;;-3.34;72.95
66430;BME280;53242;51.694;10.006;2022-12-18T12:57:08;100845.59;;;-3.21;72.65
66430;BME280;53242;51.694;10.006;2022-12-18T12:59:59;100848.09;;;-3.20;73.11
66430;BME280;53242;51.694;10.006;2022-12-18T13:07:59;100839.66;;;-3.23;73.05
66430;BME280;53242;51.694;10.006;2022-12-18T13:10:30;100851.31;;;-3.15;73.03
66430;BME280;53242;51.694;10.006;2022-12-18T13:13:20;100849.09;;;-3.22;73.28
66430;BME280;53242;51.694;10.006;2022-12-18T13:15:47;100857.47;;;-3.17;73.19
66430;BME280;53242;51.694;10.006;2022-12-18T13:18:14;100857.75;;;-3.23;73.19
66430;BME280;53242;51.694;10.006;2022-12-18T13:20:40;100853.28;;;-3.20;73.34
66430;BME280;53242;51.694;10.006;2022-12-18T13:25:45;100848.38;;;-3.07;72.33
66430;BME280;53242;51.694;10.006;2022-12-18T13:28:13;100851.22;;;-3.13;72.97
66430;BME280;53242;51.694;10.006;2022-12-18T13:38:23;100863.78;;;-3.05;72.32
66430;BME280;53242;51.694;10.006;2022-12-18T13:43:39;100851.03;;;-3.08;71.66
66430;BME280;53242;51.694;10.006;2022-12-18T13:46:04;100855.47;;;-2.93;71.02
66430;BME280;53242;51.694;10.006;2022-12-18T13:48:29;100847.03;;;-2.97;71.61
66430;BME280;53242;51.694;10.006;2022-12-18T13:51:00;100850.22;;;-3.09;71.51
66430;BME280;53242;51.694;10.006;2022-12-18T13:53:37;100855.63;;;-2.96;70.98
66430;BME280;53242;51.694;10.006;2022-12-18T13:56:02;100851.28;;;-2.95;70.75